createdAt,value
2019-04-09T00:00:17.271Z,12.17
2019-04-09T00:03:18.906Z,13.20
2019-04-09T00:06:00.691Z,12.17
2019-04-09T00:08:41.879Z,12.47
2019-04-09T00:11:22.772Z,12.40
2019-04-09T00:14:03.700Z,13.00
2019-04-09T00:16:45.604Z,13.27
2019-04-09T00:19:27.434Z,13.20
2019-04-09T00:22:08.369Z,13.13
2019-04-09T00:24:49.765Z,12.73
2019-04-09T00:27:30.498Z,13.13
2019-04-09T00:30:12.492Z,13.37
2019-04-09T00:32:53.766Z,15.30
2019-04-09T00:35:34.567Z,13.80
2019-04-09T00:38:15.281Z,13.70
2019-04-09T00:40:56.980Z,13.60
2019-04-09T00:43:37.846Z,13.97
2019-04-09T00:46:19.841Z,13.93
2019-04-09T00:49:01.016Z,14.70
2019-04-09T00:51:42.094Z,14.80
2019-04-09T00:54:23.306Z,14.57
2019-04-09T00:57:08.796Z,13.70
2019-04-09T00:59:47.166Z,14.60
2019-04-09T01:02:28.645Z,14.53
2019-04-09T01:05:11.080Z,15.13
2019-04-09T01:07:51.879Z,15.97
2019-04-09T01:10:32.559Z,16.70
2019-04-09T01:13:14.066Z,15.40
2019-04-09T01:15:55.528Z,15.57
2019-04-09T01:18:36.411Z,16.63
2019-04-09T01:21:16.774Z,17.07
2019-04-09T01:23:57.539Z,15.63
2019-04-09T01:26:49.156Z,17.57
2019-04-09T01:29:51.215Z,15.27
2019-04-09T01:32:38.059Z,16.03
2019-04-09T01:35:28.951Z,15.10
2019-04-09T01:38:24.399Z,15.50
2019-04-09T01:41:25.631Z,16.10
2019-04-09T01:44:19.275Z,15.67
2019-04-09T01:47:15.986Z,16.20
2019-04-09T01:50:17.099Z,15.87
2019-04-09T01:53:06.015Z,16.43
2019-04-09T01:56:07.162Z,17.30
2019-04-09T01:59:07.234Z,16.73
2019-04-09T02:02:02.566Z,16.83
2019-04-09T02:05:03.494Z,17.37
2019-04-09T02:08:01.782Z,18.20
2019-04-09T02:10:57.976Z,17.50
2019-04-09T02:14:05.919Z,19.43
2019-04-09T02:17:13.595Z,18.50
2019-04-09T02:20:21.987Z,16.80
2019-04-09T02:23:15.923Z,17.80
2019-04-09T02:26:23.336Z,18.23
2019-04-09T02:29:31.146Z,18.40
2019-04-09T02:32:38.416Z,18.13
2019-04-09T02:35:45.591Z,18.40
2019-04-09T02:38:52.701Z,18.13
2019-04-09T02:41:59.823Z,17.50
2019-04-09T02:45:08.373Z,19.03
2019-04-09T02:48:16.950Z,18.70
2019-04-09T02:51:18.766Z,19.23
2019-04-09T02:54:25.947Z,18.93
2019-04-09T02:57:33.055Z,18.57
2019-04-09T03:00:30.110Z,19.00
2019-04-09T03:03:27.656Z,19.63
2019-04-09T03:06:26.214Z,19.23
2019-04-09T03:09:26.686Z,19.57
2019-04-09T03:12:27.229Z,20.87
2019-04-09T03:15:15.671Z,20.93
2019-04-09T03:21:13.205Z,18.37
2019-04-09T03:24:02.218Z,18.77
2019-04-09T03:26:53.563Z,19.63
2019-04-09T03:29:44.866Z,19.93
2019-04-09T03:32:53.948Z,18.30
2019-04-09T03:36:01.302Z,18.67
2019-04-09T03:39:08.481Z,20.80
2019-04-09T03:42:04.149Z,18.90
2019-04-09T03:45:11.248Z,18.57
2019-04-09T03:48:19.232Z,19.97
2019-04-09T03:51:26.976Z,18.70
2019-04-09T03:54:22.328Z,18.33
2019-04-09T03:57:30.562Z,19.23
2019-04-09T04:00:34.733Z,19.27
2019-04-09T04:03:42.618Z,19.00
2019-04-09T04:06:50.516Z,20.93
2019-04-09T04:09:39.134Z,18.90
2019-04-09T04:12:39.453Z,20.47
2019-04-09T04:15:39.149Z,20.07
2019-04-09T04:21:50.399Z,18.47
2019-04-09T04:24:57.730Z,20.50
2019-04-09T04:28:05.003Z,19.03
2019-04-09T04:31:13.667Z,18.87
2019-04-09T04:34:20.978Z,19.67
2019-04-09T04:37:29.022Z,20.47
2019-04-09T04:40:36.987Z,20.40
2019-04-09T04:43:44.099Z,20.87
2019-04-09T04:46:51.207Z,25.93
2019-04-09T04:49:58.303Z,20.80
2019-04-09T04:52:52.547Z,20.00
2019-04-09T04:55:59.957Z,19.30
2019-04-09T04:59:07.581Z,19.53
2019-04-09T05:02:17.225Z,19.80
2019-04-09T05:05:25.214Z,19.77
2019-04-09T05:08:25.645Z,21.90
2019-04-09T05:11:26.392Z,20.97
2019-04-09T05:14:27.569Z,21.77
2019-04-09T05:17:28.826Z,23.03
2019-04-09T05:20:29.133Z,22.97
2019-04-09T05:23:29.717Z,22.97
2019-04-09T05:26:22.107Z,21.07
2019-04-09T05:29:24.084Z,23.50
2019-04-09T05:32:17.434Z,25.23
2019-04-09T05:35:15.958Z,27.20
2019-04-09T05:38:03.076Z,26.67
2019-04-09T05:41:07.618Z,25.70
2019-04-09T05:44:08.312Z,23.17
2019-04-09T05:47:08.221Z,24.17
2019-04-09T05:50:00.447Z,24.20
2019-04-09T05:53:07.602Z,26.10
2019-04-09T05:56:07.063Z,24.83
2019-04-09T05:59:10.043Z,26.50
2019-04-09T06:01:58.899Z,26.93
2019-04-09T06:04:58.341Z,27.83
2019-04-09T06:07:51.500Z,29.60
2019-04-09T06:10:33.114Z,27.97
2019-04-09T06:13:22.082Z,28.70
2019-04-09T06:16:03.740Z,29.30
2019-04-09T06:18:44.346Z,28.00
2019-04-09T06:21:28.024Z,28.03
2019-04-09T06:24:07.870Z,27.50
2019-04-09T06:26:49.346Z,25.77
2019-04-09T06:29:29.947Z,25.70
2019-04-09T06:35:41.136Z,27.57
2019-04-09T06:38:39.379Z,26.37
2019-04-09T06:41:42.038Z,26.77
2019-04-09T06:44:35.633Z,27.43
2019-04-09T06:50:27.083Z,28.20
2019-04-09T06:53:28.913Z,25.83
2019-04-09T06:56:19.765Z,25.43
2019-04-09T06:59:11.291Z,24.60
2019-04-09T07:01:59.506Z,27.50
2019-04-09T07:05:02.679Z,25.10
2019-04-09T07:08:03.460Z,25.37
2019-04-09T07:11:12.604Z,25.23
2019-04-09T07:14:04.557Z,25.13
2019-04-09T07:17:05.780Z,25.40
2019-04-09T07:20:05.853Z,25.40
2019-04-09T07:23:01.959Z,24.95
2019-04-09T07:26:04.067Z,25.60
2019-04-09T07:29:03.752Z,26.27
2019-04-09T07:32:05.673Z,24.52
2019-04-09T07:35:06.487Z,24.77
2019-04-09T07:37:57.979Z,24.02
2019-04-09T07:41:08.139Z,26.52
2019-04-09T07:44:14.220Z,25.00
2019-04-09T07:47:23.525Z,24.67
2019-04-09T07:50:18.147Z,24.15
2019-04-09T07:53:28.591Z,25.08
2019-04-09T07:59:43.131Z,24.02
2019-04-09T08:02:43.796Z,25.52
2019-04-09T08:05:51.963Z,26.27
2019-04-09T08:08:51.403Z,26.65
2019-04-09T08:11:46.528Z,24.20
2019-04-09T08:14:42.458Z,24.05
2019-04-09T08:17:48.146Z,25.90
2019-04-09T08:20:44.015Z,23.42
2019-04-09T08:23:46.791Z,25.08
2019-04-09T08:26:47.040Z,24.00
2019-04-09T08:29:56.538Z,22.35
2019-04-09T08:32:54.895Z,24.75
2019-04-09T08:35:55.210Z,24.27
2019-04-09T08:38:55.309Z,26.17
2019-04-09T08:42:04.370Z,25.37
2019-04-09T08:44:58.923Z,23.70
2019-04-09T08:48:10.960Z,24.85
2019-04-09T08:51:06.004Z,24.85
2019-04-09T08:54:04.585Z,24.50
2019-04-09T08:56:59.866Z,25.82
2019-04-09T09:00:07.878Z,24.00
2019-04-09T09:03:04.432Z,24.65
2019-04-09T09:06:15.460Z,23.60
2019-04-09T09:09:17.965Z,24.87
2019-04-09T09:12:10.621Z,24.02
2019-04-09T09:15:10.263Z,24.35
2019-04-09T09:18:01.613Z,23.62
2019-04-09T09:20:55.548Z,23.65
2019-04-09T09:23:59.806Z,23.85
2019-04-09T09:27:11.683Z,23.45
2019-04-09T09:30:17.732Z,21.27
2019-04-09T09:33:29.291Z,23.38
2019-04-09T09:36:37.212Z,22.40
2019-04-09T09:39:43.011Z,22.65
2019-04-09T09:42:49.494Z,21.40
2019-04-09T09:46:01.032Z,22.48
2019-04-09T09:49:06.290Z,22.52
2019-04-09T09:51:59.634Z,22.13
2019-04-09T09:54:56.126Z,21.30
2019-04-09T09:58:03.235Z,21.05
2019-04-09T10:01:19.656Z,20.80
2019-04-09T10:04:07.247Z,20.45
2019-04-09T10:07:14.829Z,22.15
2019-04-09T10:10:16.949Z,22.30
2019-04-09T10:13:26.432Z,21.30
2019-04-09T10:16:33.787Z,22.53
2019-04-09T10:19:41.249Z,21.77
2019-04-09T10:22:48.370Z,22.25
2019-04-09T10:25:56.491Z,20.97
2019-04-09T10:29:10.505Z,19.62
2019-04-09T10:32:05.365Z,19.50
2019-04-09T10:35:10.505Z,19.67
2019-04-09T10:38:21.652Z,19.35
2019-04-09T10:41:34.257Z,18.67
2019-04-09T10:44:38.208Z,20.77
2019-04-09T10:47:44.752Z,19.73
2019-04-09T10:50:45.324Z,19.67
2019-04-09T10:53:54.369Z,19.60
2019-04-09T10:57:06.494Z,18.45
2019-04-09T11:00:10.527Z,18.57
2019-04-09T11:03:18.694Z,18.87
2019-04-09T11:06:28.075Z,18.37
2019-04-09T11:09:14.650Z,17.90
2019-04-09T11:12:11.061Z,17.15
2019-04-09T11:15:03.769Z,17.30
2019-04-09T11:17:55.710Z,16.90
2019-04-09T11:20:56.159Z,16.52
2019-04-09T11:23:57.188Z,15.58
2019-04-09T11:27:03.429Z,18.12
2019-04-09T11:29:59.423Z,19.00
2019-04-09T11:33:06.870Z,19.52
2019-04-09T11:36:14.031Z,19.23
2019-04-09T11:39:21.150Z,19.17
2019-04-09T11:42:28.320Z,19.10
2019-04-09T11:45:35.686Z,20.92
2019-04-09T11:48:42.773Z,20.10
2019-04-09T11:51:42.073Z,18.73
2019-04-09T11:54:49.250Z,20.88
2019-04-09T11:57:57.123Z,19.95
2019-04-09T12:01:04.531Z,20.32
2019-04-09T12:04:11.820Z,21.45
2019-04-09T12:07:11.709Z,20.15
2019-04-09T12:10:12.071Z,19.98
2019-04-09T12:13:11.935Z,18.95
2019-04-09T12:16:11.411Z,18.80
2019-04-09T12:19:16.689Z,19.62
2019-04-09T12:22:16.480Z,20.20
2019-04-09T12:25:07.617Z,19.80
2019-04-09T12:28:07.133Z,19.32
2019-04-09T12:30:55.607Z,21.15
2019-04-09T12:33:42.448Z,20.50
2019-04-09T12:36:38.462Z,21.57
2019-04-09T12:39:26.543Z,19.17
2019-04-09T12:42:18.408Z,20.05
2019-04-09T12:45:20.194Z,20.68
2019-04-09T12:48:20.911Z,22.52
2019-04-09T12:51:13.072Z,19.92
2019-04-09T12:54:13.976Z,19.17
2019-04-09T12:57:06.938Z,19.15
2019-04-09T12:59:52.458Z,19.98
2019-04-09T13:03:00.784Z,21.33
2019-04-09T13:06:08.118Z,20.20
2019-04-09T13:09:16.095Z,18.55
2019-04-09T13:12:23.543Z,19.80
2019-04-09T13:15:30.709Z,19.55
2019-04-09T13:18:37.907Z,22.13
2019-04-09T13:21:31.937Z,20.62
2019-04-09T13:24:39.259Z,19.12
2019-04-09T13:27:47.055Z,19.73
2019-04-09T13:30:55.250Z,19.15
2019-04-09T13:34:03.635Z,19.80
2019-04-09T13:37:10.922Z,20.25
2019-04-09T13:40:18.938Z,20.20
2019-04-09T13:43:26.114Z,18.80
2019-04-09T13:46:23.111Z,21.30
2019-04-09T13:49:23.073Z,19.95
2019-04-09T13:52:31.829Z,20.88
2019-04-09T13:55:12.673Z,21.10
2019-04-09T13:57:54.141Z,20.68
2019-04-09T14:00:35.923Z,21.35
2019-04-09T14:06:12.874Z,21.23
2019-04-09T14:08:53.420Z,21.57
2019-04-09T14:11:34.507Z,20.70
2019-04-09T14:14:16.349Z,21.20
2019-04-09T14:16:57.809Z,19.98
2019-04-09T14:19:49.291Z,21.73
2019-04-09T14:22:22.307Z,22.50
2019-04-09T14:25:03.307Z,20.10
2019-04-09T14:27:44.261Z,20.60
2019-04-09T14:30:25.013Z,20.70
2019-04-09T14:33:10.853Z,20.68
2019-04-09T14:35:48.674Z,22.20
2019-04-09T14:38:30.197Z,19.70
2019-04-09T14:41:12.374Z,17.55
2019-04-09T14:43:53.067Z,19.98
2019-04-09T14:46:33.783Z,20.50
2019-04-09T14:49:15.747Z,19.52
2019-04-09T14:51:58.170Z,14.18
2019-04-09T14:54:39.681Z,12.45
2019-04-09T15:03:24.633Z,10.00
2019-04-09T15:06:10.187Z,12.33
2019-04-09T15:09:00.378Z,9.63
2019-04-09T15:11:49.530Z,11.12
2019-04-09T15:14:18.390Z,9.80
2019-04-09T15:17:07.520Z,9.40
2019-04-09T15:19:56.831Z,9.70
2019-04-09T15:22:47.156Z,10.13
2019-04-09T15:25:36.363Z,9.05
2019-04-09T15:28:26.058Z,8.65
2019-04-09T15:31:16.288Z,8.40
2019-04-09T15:34:06.193Z,8.45
2019-04-09T15:36:56.257Z,7.05
2019-04-09T15:39:45.817Z,6.70
2019-04-09T15:42:34.277Z,7.30
2019-04-09T15:45:22.974Z,35.88
2019-04-09T15:48:12.508Z,9.05
2019-04-09T15:51:00.571Z,7.22
2019-04-09T15:53:49.249Z,9.35
2019-04-09T15:56:30.855Z,8.25
2019-04-09T15:59:12.040Z,8.65
2019-04-09T16:01:52.676Z,14.45
2019-04-09T16:04:36.374Z,7.42
2019-04-09T16:07:16.110Z,8.50
2019-04-09T16:09:56.894Z,6.25
2019-04-09T16:12:37.636Z,5.95
2019-04-09T16:15:18.920Z,8.60
2019-04-09T16:17:48.097Z,6.30
2019-04-09T16:20:36.214Z,6.55
2019-04-09T16:23:25.094Z,6.85
2019-04-09T16:26:14.694Z,6.62
2019-04-09T16:29:04.784Z,6.00
2019-04-09T16:31:55.183Z,6.95
2019-04-09T16:34:44.117Z,7.87
2019-04-09T16:37:33.576Z,8.20
2019-04-09T16:40:21.704Z,13.90
2019-04-09T16:43:10.418Z,10.50
2019-04-09T16:45:59.835Z,13.80
2019-04-09T16:48:47.994Z,25.62
2019-04-09T16:51:36.774Z,13.88
2019-04-09T16:54:27.297Z,8.00
2019-04-09T16:57:09.097Z,8.25
2019-04-09T16:59:50.542Z,10.60
2019-04-09T17:02:32.373Z,8.60
2019-04-09T17:05:13.837Z,9.03
2019-04-09T17:07:54.565Z,8.18
2019-04-09T17:10:35.902Z,8.30
2019-04-09T17:13:17.057Z,8.20
2019-04-09T17:15:58.094Z,9.30
2019-04-09T17:18:38.902Z,9.13
2019-04-09T17:21:19.303Z,9.73
2019-04-09T17:24:02.231Z,10.60
2019-04-09T17:26:40.967Z,10.63
2019-04-09T17:29:29.512Z,10.43
2019-04-09T17:32:17.841Z,9.53
2019-04-09T17:35:06.701Z,9.68
2019-04-09T17:37:56.086Z,12.00
2019-04-09T17:40:44.215Z,9.95
2019-04-09T17:43:32.365Z,10.23
2019-04-09T17:46:21.703Z,10.75
2019-04-09T17:49:11.179Z,9.98
2019-04-09T17:52:01.779Z,9.83
2019-04-09T17:54:50.733Z,9.85
2019-04-09T17:57:31.324Z,10.80
2019-04-09T18:00:15.224Z,9.20
2019-04-09T18:02:56.590Z,9.75
2019-04-09T18:05:37.068Z,10.00
2019-04-09T18:08:18.814Z,10.08
2019-04-09T18:10:59.537Z,9.50
2019-04-09T18:13:40.175Z,10.58
2019-04-09T18:16:20.601Z,10.60
2019-04-09T18:19:02.420Z,11.00
2019-04-09T18:21:43.073Z,10.80
2019-04-09T18:24:28.584Z,11.07
2019-04-09T18:27:07.324Z,12.80
2019-04-09T18:29:47.935Z,11.67
2019-04-09T18:32:29.569Z,11.50
2019-04-09T18:35:11.511Z,11.63
2019-04-09T18:37:52.701Z,12.50
2019-04-09T18:40:33.530Z,12.40
2019-04-09T18:43:14.916Z,12.50
2019-04-09T18:45:55.529Z,12.75
2019-04-09T18:48:42.889Z,11.60
2019-04-09T18:51:18.699Z,11.85
2019-04-09T18:53:59.686Z,12.77
2019-04-09T18:56:40.020Z,12.20
2019-04-09T18:59:21.164Z,12.43
2019-04-09T19:02:02.359Z,11.78
2019-04-09T19:04:43.810Z,18.20
2019-04-09T19:07:24.955Z,14.63
2019-04-09T19:10:06.429Z,13.38
2019-04-09T19:12:47.542Z,13.23
2019-04-09T19:15:28.622Z,15.83
2019-04-09T19:18:10.699Z,14.67
2019-04-09T19:20:52.078Z,13.27
2019-04-09T19:23:33.870Z,13.13
2019-04-09T19:26:15.773Z,12.80
2019-04-09T19:28:58.074Z,13.03
2019-04-09T19:31:39.741Z,13.03
2019-04-09T19:34:21.319Z,13.57
2019-04-09T19:37:03.009Z,13.30
2019-04-09T19:40:03.603Z,12.47
2019-04-09T19:42:45.926Z,12.60
2019-04-09T19:48:34.646Z,12.27
2019-04-09T19:51:15.407Z,13.40
2019-04-09T19:53:56.226Z,12.03
2019-04-09T19:56:37.578Z,11.70
2019-04-09T19:59:18.161Z,12.40
2019-04-09T20:01:58.899Z,14.00
2019-04-09T20:04:39.643Z,11.97
2019-04-09T20:07:20.541Z,13.10
2019-04-09T20:10:02.319Z,12.17
2019-04-09T20:12:43.268Z,13.97
2019-04-09T20:15:22.429Z,14.13
2019-04-09T20:18:29.903Z,14.00
2019-04-09T20:21:18.811Z,14.23
2019-04-09T20:24:08.820Z,14.63
2019-04-09T20:30:43.924Z,15.47
2019-04-09T20:33:16.199Z,15.40
2019-04-09T20:36:49.447Z,15.23
2019-04-09T20:39:41.459Z,16.27
2019-04-09T20:42:29.190Z,18.03
2019-04-09T20:45:18.390Z,17.07
2019-04-09T20:48:08.925Z,17.90
2019-04-09T20:50:57.963Z,17.10
2019-04-09T20:53:48.048Z,18.57
2019-04-09T20:59:38.922Z,18.70
2019-04-09T21:02:43.611Z,18.33
2019-04-09T21:05:24.019Z,19.27
2019-04-09T21:08:05.310Z,20.13
2019-04-09T21:10:45.691Z,20.50
2019-04-09T21:13:26.942Z,19.20
2019-04-09T21:16:08.600Z,19.53
2019-04-09T21:18:49.776Z,20.63
2019-04-09T21:21:31.710Z,22.30
2019-04-09T21:24:13.220Z,20.00
2019-04-09T21:26:54.515Z,21.77
2019-04-09T21:29:34.993Z,22.50
2019-04-09T21:32:15.904Z,23.40
2019-04-09T21:34:57.064Z,23.27
2019-04-09T21:37:38.246Z,24.23
2019-04-09T21:40:21.916Z,23.97
2019-04-09T21:43:01.272Z,24.73
2019-04-09T21:45:43.784Z,24.00
2019-04-09T21:48:25.237Z,25.50
2019-04-09T21:51:05.711Z,24.10
2019-04-09T21:53:46.326Z,24.63
2019-04-09T21:56:28.003Z,23.77
2019-04-09T21:59:08.559Z,23.40
2019-04-09T22:01:49.357Z,23.47
2019-04-09T22:04:18.362Z,24.70
2019-04-09T22:07:06.498Z,25.23
2019-04-09T22:09:54.625Z,24.20
2019-04-09T22:12:42.701Z,24.50
2019-04-09T22:15:31.356Z,24.70
2019-04-09T22:18:23.623Z,25.03
2019-04-09T22:21:10.474Z,24.63
2019-04-09T22:23:59.502Z,23.97
2019-04-09T22:26:49.656Z,25.00
2019-04-09T22:29:39.158Z,24.83
2019-04-09T22:32:28.349Z,25.10
2019-04-09T22:35:17.138Z,24.27
2019-04-09T22:38:06.412Z,25.47
2019-04-09T22:40:55.128Z,24.50
2019-04-09T22:43:44.819Z,24.37
2019-04-09T22:46:34.308Z,24.87
2019-04-09T22:49:22.429Z,24.23
2019-04-09T22:52:10.482Z,23.40
2019-04-09T22:54:58.759Z,23.27
2019-04-09T22:57:40.173Z,24.50
2019-04-09T23:00:40.970Z,24.73
2019-04-09T23:03:42.059Z,23.87
2019-04-09T23:09:48.113Z,22.23
2019-04-09T23:12:48.115Z,25.47
2019-04-09T23:18:39.333Z,22.60
2019-04-09T23:21:20.551Z,22.33
2019-04-09T23:24:01.682Z,22.97
2019-04-09T23:26:43.765Z,23.40
2019-04-09T23:29:24.910Z,23.57
2019-04-09T23:32:05.565Z,24.07
2019-04-09T23:34:46.574Z,23.17
2019-04-09T23:37:27.935Z,23.77
2019-04-09T23:40:08.997Z,22.77
2019-04-09T23:42:49.824Z,24.53
2019-04-09T23:51:41.811Z,23.13
2019-04-09T23:54:21.570Z,21.30
2019-04-09T23:57:02.631Z,22.20
2019-04-09T23:59:43.657Z,22.73
